sensor_id;sensor_type;location;lat;lon;timestamp;P1;durP1;ratioP1;P2;durP2;ratioP2
50301;SDS011;36550;50.472;19.744;2023-07-09T00:01:29;5.10;;;4.10;;
50301;SDS011;36550;50.472;19.744;2023-07-09T00:04:13;6.00;;;3.60;;
50301;SDS011;36550;50.472;19.744;2023-07-09T00:06:58;7.60;;;4.50;;
50301;SDS011;36550;50.472;19.744;2023-07-09T00:09:46;8.00;;;4.00;;
50301;SDS011;36550;50.472;19.744;2023-07-09T00:12:31;7.40;;;3.80;;
50301;SDS011;36550;50.472;19.744;2023-07-09T00:15:15;8.40;;;4.10;;
50301;SDS011;36550;50.472;19.744;2023-07-09T00:18:00;6.30;;;4.10;;
50301;SDS011;36550;50.472;19.744;2023-07-09T00:20:44;6.60;;;3.60;;
50301;SDS011;36550;50.472;19.744;2023-07-09T00:23:28;6.60;;;3.60;;
50301;SDS011;36550;50.472;19.744;2023-07-09T00:26:13;6.60;;;3.60;;
50301;SDS011;36550;50.472;19.744;2023-07-09T00:28:59;5.70;;;3.30;;
50301;SDS011;36550;50.472;19.744;2023-07-09T00:31:43;6.10;;;3.30;;
50301;SDS011;36550;50.472;19.744;2023-07-09T00:34:27;7.20;;;3.70;;
50301;SDS011;36550;50.472;19.744;2023-07-09T00:37:11;6.10;;;3.50;;
50301;SDS011;36550;50.472;19.744;2023-07-09T00:39:59;6.40;;;3.80;;
50301;SDS011;36550;50.472;19.744;2023-07-09T00:42:44;5.70;;;4.00;;
50301;SDS011;36550;50.472;19.744;2023-07-09T00:45:29;8.70;;;3.60;;
50301;SDS011;36550;50.472;19.744;2023-07-09T00:48:16;7.70;;;3.40;;
50301;SDS011;36550;50.472;19.744;2023-07-09T00:51:04;9.20;;;4.30;;
50301;SDS011;36550;50.472;19.744;2023-07-09T00:53:57;8.10;;;4.20;;
50301;SDS011;36550;50.472;19.744;2023-07-09T00:56:45;7.80;;;3.80;;
50301;SDS011;36550;50.472;19.744;2023-07-09T00:59:35;8.60;;;3.90;;
50301;SDS011;36550;50.472;19.744;2023-07-09T01:02:20;6.70;;;4.10;;
50301;SDS011;36550;50.472;19.744;2023-07-09T01:05:07;7.00;;;3.80;;
50301;SDS011;36550;50.472;19.744;2023-07-09T01:07:52;5.40;;;3.90;;
50301;SDS011;36550;50.472;19.744;2023-07-09T01:10:37;8.00;;;4.20;;
50301;SDS011;36550;50.472;19.744;2023-07-09T01:13:25;5.10;;;3.80;;
50301;SDS011;36550;50.472;19.744;2023-07-09T01:16:11;7.80;;;3.90;;
50301;SDS011;36550;50.472;19.744;2023-07-09T01:18:55;7.10;;;4.20;;
50301;SDS011;36550;50.472;19.744;2023-07-09T01:21:39;7.10;;;4.20;;
50301;SDS011;36550;50.472;19.744;2023-07-09T01:27:31;7.50;;;3.90;;
50301;SDS011;36550;50.472;19.744;2023-07-09T01:30:43;7.70;;;3.90;;
50301;SDS011;36550;50.472;19.744;2023-07-09T01:33:28;6.30;;;3.80;;
50301;SDS011;36550;50.472;19.744;2023-07-09T01:36:16;6.80;;;3.80;;
50301;SDS011;36550;50.472;19.744;2023-07-09T01:39:06;9.10;;;4.40;;
50301;SDS011;36550;50.472;19.744;2023-07-09T01:41:51;8.60;;;5.10;;
50301;SDS011;36550;50.472;19.744;2023-07-09T01:44:36;10.80;;;4.30;;
50301;SDS011;36550;50.472;19.744;2023-07-09T01:47:21;9.40;;;5.40;;
50301;SDS011;36550;50.472;19.744;2023-07-09T01:50:07;8.40;;;4.60;;
50301;SDS011;36550;50.472;19.744;2023-07-09T01:52:53;10.50;;;4.90;;
50301;SDS011;36550;50.472;19.744;2023-07-09T01:55:39;7.50;;;4.60;;
50301;SDS011;36550;50.472;19.744;2023-07-09T01:58:23;9.40;;;5.00;;
50301;SDS011;36550;50.472;19.744;2023-07-09T02:01:09;14.30;;;5.10;;
50301;SDS011;36550;50.472;19.744;2023-07-09T02:06:38;7.60;;;4.10;;
50301;SDS011;36550;50.472;19.744;2023-07-09T02:09:22;8.80;;;4.80;;
50301;SDS011;36550;50.472;19.744;2023-07-09T02:12:06;10.70;;;5.10;;
50301;SDS011;36550;50.472;19.744;2023-07-09T02:14:51;9.20;;;5.20;;
50301;SDS011;36550;50.472;19.744;2023-07-09T02:17:35;11.80;;;6.00;;
50301;SDS011;36550;50.472;19.744;2023-07-09T02:20:19;9.80;;;5.50;;
50301;SDS011;36550;50.472;19.744;2023-07-09T02:23:04;12.80;;;5.40;;
50301;SDS011;36550;50.472;19.744;2023-07-09T02:25:49;12.60;;;5.00;;
50301;SDS011;36550;50.472;19.744;2023-07-09T02:28:33;12.40;;;5.60;;
50301;SDS011;36550;50.472;19.744;2023-07-09T02:31:17;17.10;;;5.50;;
50301;SDS011;36550;50.472;19.744;2023-07-09T02:34:03;9.70;;;5.00;;
50301;SDS011;36550;50.472;19.744;2023-07-09T02:36:47;12.10;;;5.60;;
50301;SDS011;36550;50.472;19.744;2023-07-09T02:39:31;12.40;;;5.80;;
50301;SDS011;36550;50.472;19.744;2023-07-09T02:42:16;13.30;;;6.10;;
50301;SDS011;36550;50.472;19.744;2023-07-09T02:45:03;14.30;;;6.30;;
50301;SDS011;36550;50.472;19.744;2023-07-09T02:47:48;13.90;;;6.40;;
50301;SDS011;36550;50.472;19.744;2023-07-09T02:50:32;10.70;;;6.30;;
50301;SDS011;36550;50.472;19.744;2023-07-09T02:53:17;13.90;;;5.70;;
50301;SDS011;36550;50.472;19.744;2023-07-09T02:56:01;12.60;;;5.90;;
50301;SDS011;36550;50.472;19.744;2023-07-09T02:58:44;16.20;;;6.50;;
50301;SDS011;36550;50.472;19.744;2023-07-09T03:01:29;20.50;;;7.10;;
50301;SDS011;36550;50.472;19.744;2023-07-09T03:04:14;18.80;;;7.50;;
50301;SDS011;36550;50.472;19.744;2023-07-09T03:06:58;21.80;;;8.60;;
50301;SDS011;36550;50.472;19.744;2023-07-09T03:09:43;14.40;;;7.50;;
50301;SDS011;36550;50.472;19.744;2023-07-09T03:12:27;18.20;;;7.20;;
50301;SDS011;36550;50.472;19.744;2023-07-09T03:15:11;13.20;;;6.90;;
50301;SDS011;36550;50.472;19.744;2023-07-09T03:17:56;12.70;;;6.20;;
50301;SDS011;36550;50.472;19.744;2023-07-09T03:20:40;13.10;;;6.30;;
50301;SDS011;36550;50.472;19.744;2023-07-09T03:23:24;13.00;;;5.70;;
50301;SDS011;36550;50.472;19.744;2023-07-09T03:26:08;11.00;;;6.00;;
50301;SDS011;36550;50.472;19.744;2023-07-09T03:28:52;11.70;;;5.80;;
50301;SDS011;36550;50.472;19.744;2023-07-09T03:31:37;16.50;;;5.90;;
50301;SDS011;36550;50.472;19.744;2023-07-09T03:34:22;11.50;;;6.00;;
50301;SDS011;36550;50.472;19.744;2023-07-09T03:37:06;14.20;;;6.40;;
50301;SDS011;36550;50.472;19.744;2023-07-09T03:39:49;11.40;;;6.20;;
50301;SDS011;36550;50.472;19.744;2023-07-09T03:42:33;13.40;;;5.80;;
50301;SDS011;36550;50.472;19.744;2023-07-09T03:45:17;15.60;;;6.20;;
50301;SDS011;36550;50.472;19.744;2023-07-09T03:48:01;14.60;;;5.90;;
50301;SDS011;36550;50.472;19.744;2023-07-09T03:50:47;13.40;;;6.40;;
50301;SDS011;36550;50.472;19.744;2023-07-09T03:53:32;13.50;;;6.00;;
50301;SDS011;36550;50.472;19.744;2023-07-09T03:56:16;13.10;;;6.00;;
50301;SDS011;36550;50.472;19.744;2023-07-09T03:59:00;11.50;;;6.70;;
50301;SDS011;36550;50.472;19.744;2023-07-09T04:01:44;15.20;;;6.90;;
50301;SDS011;36550;50.472;19.744;2023-07-09T04:04:28;15.10;;;7.30;;
50301;SDS011;36550;50.472;19.744;2023-07-09T04:07:12;17.60;;;6.70;;
50301;SDS011;36550;50.472;19.744;2023-07-09T04:09:57;14.80;;;6.60;;
50301;SDS011;36550;50.472;19.744;2023-07-09T04:12:41;13.60;;;6.80;;
50301;SDS011;36550;50.472;19.744;2023-07-09T04:15:26;13.90;;;6.30;;
50301;SDS011;36550;50.472;19.744;2023-07-09T04:18:10;9.90;;;5.90;;
50301;SDS011;36550;50.472;19.744;2023-07-09T04:20:55;12.00;;;6.40;;
50301;SDS011;36550;50.472;19.744;2023-07-09T04:23:39;10.90;;;6.30;;
50301;SDS011;36550;50.472;19.744;2023-07-09T04:26:24;16.00;;;6.40;;
50301;SDS011;36550;50.472;19.744;2023-07-09T04:29:08;9.90;;;5.60;;
50301;SDS011;36550;50.472;19.744;2023-07-09T04:31:52;13.00;;;5.80;;
50301;SDS011;36550;50.472;19.744;2023-07-09T04:34:37;10.40;;;4.80;;
50301;SDS011;36550;50.472;19.744;2023-07-09T04:37:22;13.20;;;4.60;;
50301;SDS011;36550;50.472;19.744;2023-07-09T04:40:07;8.30;;;4.70;;
50301;SDS011;36550;50.472;19.744;2023-07-09T04:42:53;9.20;;;4.70;;
50301;SDS011;36550;50.472;19.744;2023-07-09T04:45:37;10.60;;;4.80;;
50301;SDS011;36550;50.472;19.744;2023-07-09T04:48:21;9.90;;;5.40;;
50301;SDS011;36550;50.472;19.744;2023-07-09T04:51:05;17.00;;;6.80;;
50301;SDS011;36550;50.472;19.744;2023-07-09T04:53:50;16.60;;;7.00;;
50301;SDS011;36550;50.472;19.744;2023-07-09T04:56:35;17.10;;;6.60;;
50301;SDS011;36550;50.472;19.744;2023-07-09T05:02:06;11.20;;;4.90;;
50301;SDS011;36550;50.472;19.744;2023-07-09T05:04:50;11.10;;;5.00;;
50301;SDS011;36550;50.472;19.744;2023-07-09T05:07:35;11.70;;;5.60;;
50301;SDS011;36550;50.472;19.744;2023-07-09T05:10:20;9.90;;;5.00;;
50301;SDS011;36550;50.472;19.744;2023-07-09T05:13:04;9.20;;;5.20;;
50301;SDS011;36550;50.472;19.744;2023-07-09T05:15:48;10.20;;;5.10;;
50301;SDS011;36550;50.472;19.744;2023-07-09T05:18:34;9.30;;;5.00;;
50301;SDS011;36550;50.472;19.744;2023-07-09T05:21:18;9.20;;;4.70;;
50301;SDS011;36550;50.472;19.744;2023-07-09T05:24:03;6.90;;;4.50;;
50301;SDS011;36550;50.472;19.744;2023-07-09T05:29:32;7.20;;;4.30;;
50301;SDS011;36550;50.472;19.744;2023-07-09T05:32:16;13.10;;;4.90;;
50301;SDS011;36550;50.472;19.744;2023-07-09T05:35:01;9.70;;;4.80;;
50301;SDS011;36550;50.472;19.744;2023-07-09T05:37:45;11.60;;;4.90;;
50301;SDS011;36550;50.472;19.744;2023-07-09T05:40:29;9.40;;;4.90;;
50301;SDS011;36550;50.472;19.744;2023-07-09T05:43:13;8.10;;;4.50;;
50301;SDS011;36550;50.472;19.744;2023-07-09T05:45:57;8.70;;;4.50;;
50301;SDS011;36550;50.472;19.744;2023-07-09T05:48:41;8.70;;;4.50;;
50301;SDS011;36550;50.472;19.744;2023-07-09T05:51:25;9.80;;;4.90;;
50301;SDS011;36550;50.472;19.744;2023-07-09T05:54:11;9.60;;;5.40;;
50301;SDS011;36550;50.472;19.744;2023-07-09T05:56:55;9.70;;;4.60;;
50301;SDS011;36550;50.472;19.744;2023-07-09T05:59:39;9.60;;;4.40;;
50301;SDS011;36550;50.472;19.744;2023-07-09T06:02:23;9.90;;;4.00;;
50301;SDS011;36550;50.472;19.744;2023-07-09T06:05:07;7.40;;;3.80;;
50301;SDS011;36550;50.472;19.744;2023-07-09T06:07:54;7.30;;;4.10;;
50301;SDS011;36550;50.472;19.744;2023-07-09T06:10:38;5.70;;;3.90;;
50301;SDS011;36550;50.472;19.744;2023-07-09T06:13:26;7.50;;;4.20;;
50301;SDS011;36550;50.472;19.744;2023-07-09T06:16:11;7.00;;;4.00;;
50301;SDS011;36550;50.472;19.744;2023-07-09T06:18:55;7.00;;;4.40;;
50301;SDS011;36550;50.472;19.744;2023-07-09T06:21:39;11.80;;;6.30;;
50301;SDS011;36550;50.472;19.744;2023-07-09T06:24:24;7.60;;;3.80;;
50301;SDS011;36550;50.472;19.744;2023-07-09T06:27:09;7.20;;;3.70;;
50301;SDS011;36550;50.472;19.744;2023-07-09T06:29:53;6.80;;;4.30;;
50301;SDS011;36550;50.472;19.744;2023-07-09T06:32:37;8.10;;;4.30;;
50301;SDS011;36550;50.472;19.744;2023-07-09T06:35:21;8.00;;;4.90;;
50301;SDS011;36550;50.472;19.744;2023-07-09T06:38:05;9.90;;;4.60;;
50301;SDS011;36550;50.472;19.744;2023-07-09T06:40:50;7.20;;;4.10;;
50301;SDS011;36550;50.472;19.744;2023-07-09T06:43:34;6.80;;;3.90;;
50301;SDS011;36550;50.472;19.744;2023-07-09T06:46:22;7.80;;;3.50;;
50301;SDS011;36550;50.472;19.744;2023-07-09T06:49:06;5.50;;;3.20;;
50301;SDS011;36550;50.472;19.744;2023-07-09T06:51:50;5.80;;;3.30;;
50301;SDS011;36550;50.472;19.744;2023-07-09T06:54:35;8.70;;;3.10;;
50301;SDS011;36550;50.472;19.744;2023-07-09T06:57:19;5.10;;;3.00;;
50301;SDS011;36550;50.472;19.744;2023-07-09T07:00:04;5.80;;;2.70;;
50301;SDS011;36550;50.472;19.744;2023-07-09T07:02:49;8.60;;;2.70;;
50301;SDS011;36550;50.472;19.744;2023-07-09T07:05:33;5.50;;;3.00;;
50301;SDS011;36550;50.472;19.744;2023-07-09T07:08:18;7.50;;;3.60;;
50301;SDS011;36550;50.472;19.744;2023-07-09T07:11:04;6.80;;;2.90;;
50301;SDS011;36550;50.472;19.744;2023-07-09T07:13:50;4.60;;;2.90;;
50301;SDS011;36550;50.472;19.744;2023-07-09T07:16:35;6.40;;;3.00;;
50301;SDS011;36550;50.472;19.744;2023-07-09T07:19:19;7.40;;;3.00;;
50301;SDS011;36550;50.472;19.744;2023-07-09T07:22:03;5.70;;;3.30;;
50301;SDS011;36550;50.472;19.744;2023-07-09T07:24:48;4.50;;;2.80;;
50301;SDS011;36550;50.472;19.744;2023-07-09T07:27:32;5.50;;;3.30;;
50301;SDS011;36550;50.472;19.744;2023-07-09T07:30:16;5.60;;;2.90;;
50301;SDS011;36550;50.472;19.744;2023-07-09T07:33:01;7.20;;;3.80;;
50301;SDS011;36550;50.472;19.744;2023-07-09T07:35:44;7.00;;;3.50;;
50301;SDS011;36550;50.472;19.744;2023-07-09T07:38:29;6.20;;;3.60;;
50301;SDS011;36550;50.472;19.744;2023-07-09T07:41:13;5.00;;;2.90;;
50301;SDS011;36550;50.472;19.744;2023-07-09T07:43:56;6.00;;;3.10;;
50301;SDS011;36550;50.472;19.744;2023-07-09T07:46:41;5.50;;;2.90;;
50301;SDS011;36550;50.472;19.744;2023-07-09T07:49:25;3.60;;;2.80;;
50301;SDS011;36550;50.472;19.744;2023-07-09T07:52:09;4.80;;;2.60;;
50301;SDS011;36550;50.472;19.744;2023-07-09T07:54:54;4.90;;;2.50;;
50301;SDS011;36550;50.472;19.744;2023-07-09T07:57:38;7.10;;;2.60;;
50301;SDS011;36550;50.472;19.744;2023-07-09T08:00:22;5.60;;;2.70;;
50301;SDS011;36550;50.472;19.744;2023-07-09T08:03:06;5.40;;;2.50;;
50301;SDS011;36550;50.472;19.744;2023-07-09T08:05:51;4.70;;;2.60;;
50301;SDS011;36550;50.472;19.744;2023-07-09T08:08:36;4.90;;;2.50;;
50301;SDS011;36550;50.472;19.744;2023-07-09T08:11:20;3.50;;;2.60;;
50301;SDS011;36550;50.472;19.744;2023-07-09T08:14:04;3.80;;;2.50;;
50301;SDS011;36550;50.472;19.744;2023-07-09T08:16:48;6.20;;;2.40;;
50301;SDS011;36550;50.472;19.744;2023-07-09T08:19:43;3.90;;;2.30;;
50301;SDS011;36550;50.472;19.744;2023-07-09T08:22:28;4.00;;;2.40;;
50301;SDS011;36550;50.472;19.744;2023-07-09T08:25:11;4.30;;;2.60;;
50301;SDS011;36550;50.472;19.744;2023-07-09T08:27:56;6.70;;;2.60;;
50301;SDS011;36550;50.472;19.744;2023-07-09T08:30:40;3.90;;;2.50;;
50301;SDS011;36550;50.472;19.744;2023-07-09T08:33:24;6.60;;;2.60;;
50301;SDS011;36550;50.472;19.744;2023-07-09T08:36:09;3.00;;;2.50;;
50301;SDS011;36550;50.472;19.744;2023-07-09T08:38:53;3.20;;;2.10;;
50301;SDS011;36550;50.472;19.744;2023-07-09T08:41:43;4.40;;;2.50;;
50301;SDS011;36550;50.472;19.744;2023-07-09T08:44:40;3.70;;;2.20;;
50301;SDS011;36550;50.472;19.744;2023-07-09T08:47:43;3.60;;;2.50;;
50301;SDS011;36550;50.472;19.744;2023-07-09T08:50:36;5.60;;;2.50;;
50301;SDS011;36550;50.472;19.744;2023-07-09T08:56:29;4.00;;;2.30;;
50301;SDS011;36550;50.472;19.744;2023-07-09T08:59:16;4.70;;;2.30;;
50301;SDS011;36550;50.472;19.744;2023-07-09T09:02:03;3.20;;;2.30;;
50301;SDS011;36550;50.472;19.744;2023-07-09T09:04:53;3.80;;;2.40;;
50301;SDS011;36550;50.472;19.744;2023-07-09T09:07:41;3.90;;;2.50;;
50301;SDS011;36550;50.472;19.744;2023-07-09T09:10:35;4.40;;;2.60;;
50301;SDS011;36550;50.472;19.744;2023-07-09T09:13:27;2.60;;;2.10;;
50301;SDS011;36550;50.472;19.744;2023-07-09T09:16:21;7.80;;;2.30;;
50301;SDS011;36550;50.472;19.744;2023-07-09T09:19:20;7.30;;;2.30;;
50301;SDS011;36550;50.472;19.744;2023-07-09T09:22:13;4.40;;;2.20;;
50301;SDS011;36550;50.472;19.744;2023-07-09T09:28:07;5.80;;;2.60;;
50301;SDS011;36550;50.472;19.744;2023-07-09T09:33:36;3.50;;;2.50;;
50301;SDS011;36550;50.472;19.744;2023-07-09T09:36:25;5.80;;;2.40;;
50301;SDS011;36550;50.472;19.744;2023-07-09T09:39:10;3.90;;;2.60;;
50301;SDS011;36550;50.472;19.744;2023-07-09T09:41:55;4.10;;;2.60;;
50301;SDS011;36550;50.472;19.744;2023-07-09T09:44:44;4.40;;;2.40;;
50301;SDS011;36550;50.472;19.744;2023-07-09T09:47:29;4.50;;;2.70;;
50301;SDS011;36550;50.472;19.744;2023-07-09T09:50:15;4.30;;;2.60;;
50301;SDS011;36550;50.472;19.744;2023-07-09T09:53:06;3.30;;;2.60;;
50301;SDS011;36550;50.472;19.744;2023-07-09T09:55:52;5.00;;;2.50;;
50301;SDS011;36550;50.472;19.744;2023-07-09T09:58:39;2.60;;;2.30;;
50301;SDS011;36550;50.472;19.744;2023-07-09T10:01:28;3.20;;;2.40;;
50301;SDS011;36550;50.472;19.744;2023-07-09T10:04:16;3.40;;;2.40;;
50301;SDS011;36550;50.472;19.744;2023-07-09T10:07:04;5.50;;;2.40;;
50301;SDS011;36550;50.472;19.744;2023-07-09T10:09:52;4.00;;;2.70;;
50301;SDS011;36550;50.472;19.744;2023-07-09T10:12:45;5.30;;;3.00;;
50301;SDS011;36550;50.472;19.744;2023-07-09T10:15:43;3.40;;;2.80;;
50301;SDS011;36550;50.472;19.744;2023-07-09T10:21:34;3.70;;;2.50;;
50301;SDS011;36550;50.472;19.744;2023-07-09T10:27:29;4.60;;;2.70;;
50301;SDS011;36550;50.472;19.744;2023-07-09T10:33:25;7.30;;;3.10;;
50301;SDS011;36550;50.472;19.744;2023-07-09T10:36:22;6.20;;;2.80;;
50301;SDS011;36550;50.472;19.744;2023-07-09T10:39:34;3.70;;;2.70;;
50301;SDS011;36550;50.472;19.744;2023-07-09T10:42:43;4.50;;;2.70;;
50301;SDS011;36550;50.472;19.744;2023-07-09T10:45:31;4.00;;;2.80;;
50301;SDS011;36550;50.472;19.744;2023-07-09T10:48:29;3.30;;;2.40;;
50301;SDS011;36550;50.472;19.744;2023-07-09T10:54:15;3.00;;;2.50;;
50301;SDS011;36550;50.472;19.744;2023-07-09T10:57:09;4.10;;;2.60;;
50301;SDS011;36550;50.472;19.744;2023-07-09T11:00:03;3.00;;;2.60;;
50301;SDS011;36550;50.472;19.744;2023-07-09T11:02:54;5.00;;;2.70;;
50301;SDS011;36550;50.472;19.744;2023-07-09T11:05:46;3.80;;;2.60;;
50301;SDS011;36550;50.472;19.744;2023-07-09T11:08:34;2.70;;;2.40;;
50301;SDS011;36550;50.472;19.744;2023-07-09T11:11:32;3.50;;;2.50;;
50301;SDS011;36550;50.472;19.744;2023-07-09T11:14:35;4.70;;;2.60;;
50301;SDS011;36550;50.472;19.744;2023-07-09T11:17:25;3.10;;;2.30;;
50301;SDS011;36550;50.472;19.744;2023-07-09T11:20:18;4.60;;;2.40;;
50301;SDS011;36550;50.472;19.744;2023-07-09T11:23:07;3.30;;;1.90;;
50301;SDS011;36550;50.472;19.744;2023-07-09T11:26:34;3.00;;;2.20;;
50301;SDS011;36550;50.472;19.744;2023-07-09T11:29:23;3.60;;;2.40;;
50301;SDS011;36550;50.472;19.744;2023-07-09T11:32:08;2.60;;;2.00;;
50301;SDS011;36550;50.472;19.744;2023-07-09T11:34:53;3.20;;;2.20;;
50301;SDS011;36550;50.472;19.744;2023-07-09T11:37:45;4.10;;;2.40;;
50301;SDS011;36550;50.472;19.744;2023-07-09T11:40:30;2.60;;;2.30;;
50301;SDS011;36550;50.472;19.744;2023-07-09T11:43:27;4.40;;;2.40;;
50301;SDS011;36550;50.472;19.744;2023-07-09T11:46:25;4.70;;;2.80;;
50301;SDS011;36550;50.472;19.744;2023-07-09T11:49:10;5.80;;;2.10;;
50301;SDS011;36550;50.472;19.744;2023-07-09T11:51:59;5.30;;;2.40;;
50301;SDS011;36550;50.472;19.744;2023-07-09T11:54:49;3.40;;;2.00;;
50301;SDS011;36550;50.472;19.744;2023-07-09T11:57:35;2.80;;;2.00;;
50301;SDS011;36550;50.472;19.744;2023-07-09T12:00:21;5.00;;;2.30;;
50301;SDS011;36550;50.472;19.744;2023-07-09T12:03:07;7.00;;;2.40;;
50301;SDS011;36550;50.472;19.744;2023-07-09T12:09:03;4.30;;;2.30;;
50301;SDS011;36550;50.472;19.744;2023-07-09T12:11:52;5.20;;;2.50;;
50301;SDS011;36550;50.472;19.744;2023-07-09T12:14:37;4.50;;;2.40;;
50301;SDS011;36550;50.472;19.744;2023-07-09T12:17:23;3.40;;;2.40;;
50301;SDS011;36550;50.472;19.744;2023-07-09T12:20:11;3.50;;;2.40;;
50301;SDS011;36550;50.472;19.744;2023-07-09T12:22:58;3.30;;;2.60;;
50301;SDS011;36550;50.472;19.744;2023-07-09T12:25:46;3.00;;;2.40;;
50301;SDS011;36550;50.472;19.744;2023-07-09T12:28:32;3.00;;;2.30;;
50301;SDS011;36550;50.472;19.744;2023-07-09T12:34:00;3.80;;;2.60;;
50301;SDS011;36550;50.472;19.744;2023-07-09T12:36:49;3.80;;;2.60;;
50301;SDS011;36550;50.472;19.744;2023-07-09T12:39:34;3.50;;;2.60;;
50301;SDS011;36550;50.472;19.744;2023-07-09T12:42:19;3.90;;;2.60;;
50301;SDS011;36550;50.472;19.744;2023-07-09T12:45:13;5.70;;;2.40;;
50301;SDS011;36550;50.472;19.744;2023-07-09T12:48:02;3.70;;;2.70;;
50301;SDS011;36550;50.472;19.744;2023-07-09T12:50:48;5.60;;;2.70;;
50301;SDS011;36550;50.472;19.744;2023-07-09T12:53:35;5.30;;;2.70;;
50301;SDS011;36550;50.472;19.744;2023-07-09T12:56:20;4.90;;;2.40;;
50301;SDS011;36550;50.472;19.744;2023-07-09T12:59:27;3.00;;;2.20;;
50301;SDS011;36550;50.472;19.744;2023-07-09T13:02:17;3.90;;;2.50;;
50301;SDS011;36550;50.472;19.744;2023-07-09T13:05:04;3.50;;;2.40;;
50301;SDS011;36550;50.472;19.744;2023-07-09T13:07:51;5.10;;;2.60;;
50301;SDS011;36550;50.472;19.744;2023-07-09T13:10:40;5.30;;;2.70;;
50301;SDS011;36550;50.472;19.744;2023-07-09T13:13:24;2.80;;;2.20;;
50301;SDS011;36550;50.472;19.744;2023-07-09T13:16:09;4.50;;;2.30;;
50301;SDS011;36550;50.472;19.744;2023-07-09T13:18:53;5.70;;;2.30;;
50301;SDS011;36550;50.472;19.744;2023-07-09T13:21:38;3.90;;;2.30;;
50301;SDS011;36550;50.472;19.744;2023-07-09T13:24:24;6.80;;;2.40;;
50301;SDS011;36550;50.472;19.744;2023-07-09T13:27:12;5.20;;;2.40;;
50301;SDS011;36550;50.472;19.744;2023-07-09T13:29:57;4.30;;;2.20;;
50301;SDS011;36550;50.472;19.744;2023-07-09T13:32:42;3.10;;;2.20;;
50301;SDS011;36550;50.472;19.744;2023-07-09T13:35:28;6.50;;;2.30;;
50301;SDS011;36550;50.472;19.744;2023-07-09T13:38:12;4.40;;;2.30;;
50301;SDS011;36550;50.472;19.744;2023-07-09T13:41:01;3.90;;;2.40;;
50301;SDS011;36550;50.472;19.744;2023-07-09T13:43:55;4.90;;;2.20;;
50301;SDS011;36550;50.472;19.744;2023-07-09T13:46:40;3.60;;;2.50;;
50301;SDS011;36550;50.472;19.744;2023-07-09T13:49:25;4.80;;;2.40;;
50301;SDS011;36550;50.472;19.744;2023-07-09T13:52:15;5.00;;;2.20;;
50301;SDS011;36550;50.472;19.744;2023-07-09T13:55:02;4.00;;;2.40;;
50301;SDS011;36550;50.472;19.744;2023-07-09T13:57:47;5.90;;;2.40;;
50301;SDS011;36550;50.472;19.744;2023-07-09T14:00:35;3.20;;;2.30;;
50301;SDS011;36550;50.472;19.744;2023-07-09T14:03:23;4.70;;;2.20;;
50301;SDS011;36550;50.472;19.744;2023-07-09T14:06:13;3.40;;;2.40;;
50301;SDS011;36550;50.472;19.744;2023-07-09T14:08:59;4.80;;;2.20;;
50301;SDS011;36550;50.472;19.744;2023-07-09T14:11:51;4.30;;;2.10;;
50301;SDS011;36550;50.472;19.744;2023-07-09T14:14:37;3.80;;;2.10;;
50301;SDS011;36550;50.472;19.744;2023-07-09T14:17:21;3.80;;;2.20;;
50301;SDS011;36550;50.472;19.744;2023-07-09T14:20:10;2.80;;;2.30;;
50301;SDS011;36550;50.472;19.744;2023-07-09T14:22:55;2.80;;;2.20;;
50301;SDS011;36550;50.472;19.744;2023-07-09T14:25:39;4.00;;;2.20;;
50301;SDS011;36550;50.472;19.744;2023-07-09T14:28:24;2.90;;;2.40;;
50301;SDS011;36550;50.472;19.744;2023-07-09T14:31:18;3.50;;;2.40;;
50301;SDS011;36550;50.472;19.744;2023-07-09T14:34:16;4.70;;;2.10;;
50301;SDS011;36550;50.472;19.744;2023-07-09T14:37:01;4.00;;;2.10;;
50301;SDS011;36550;50.472;19.744;2023-07-09T14:39:44;5.00;;;2.30;;
50301;SDS011;36550;50.472;19.744;2023-07-09T14:42:28;6.30;;;2.80;;
50301;SDS011;36550;50.472;19.744;2023-07-09T14:45:19;6.10;;;2.50;;
50301;SDS011;36550;50.472;19.744;2023-07-09T14:48:13;7.10;;;2.70;;
50301;SDS011;36550;50.472;19.744;2023-07-09T14:50:58;4.40;;;2.50;;
50301;SDS011;36550;50.472;19.744;2023-07-09T14:53:43;7.00;;;2.60;;
50301;SDS011;36550;50.472;19.744;2023-07-09T14:56:27;4.60;;;2.50;;
50301;SDS011;36550;50.472;19.744;2023-07-09T14:59:11;7.40;;;2.50;;
50301;SDS011;36550;50.472;19.744;2023-07-09T15:01:55;3.30;;;2.70;;
50301;SDS011;36550;50.472;19.744;2023-07-09T15:04:39;4.60;;;2.40;;
50301;SDS011;36550;50.472;19.744;2023-07-09T15:07:25;3.30;;;2.30;;
50301;SDS011;36550;50.472;19.744;2023-07-09T15:10:22;3.00;;;2.30;;
50301;SDS011;36550;50.472;19.744;2023-07-09T15:13:11;2.90;;;2.40;;
50301;SDS011;36550;50.472;19.744;2023-07-09T15:16:00;4.40;;;2.40;;
50301;SDS011;36550;50.472;19.744;2023-07-09T15:18:46;4.50;;;2.40;;
50301;SDS011;36550;50.472;19.744;2023-07-09T15:21:30;4.70;;;2.60;;
50301;SDS011;36550;50.472;19.744;2023-07-09T15:24:17;3.00;;;2.30;;
50301;SDS011;36550;50.472;19.744;2023-07-09T15:27:02;5.70;;;2.40;;
50301;SDS011;36550;50.472;19.744;2023-07-09T15:29:49;4.10;;;2.50;;
50301;SDS011;36550;50.472;19.744;2023-07-09T15:32:33;5.30;;;2.60;;
50301;SDS011;36550;50.472;19.744;2023-07-09T15:35:18;3.40;;;2.70;;
50301;SDS011;36550;50.472;19.744;2023-07-09T15:41:18;4.00;;;2.60;;
50301;SDS011;36550;50.472;19.744;2023-07-09T15:44:02;3.80;;;2.30;;
50301;SDS011;36550;50.472;19.744;2023-07-09T15:46:50;5.60;;;2.50;;
50301;SDS011;36550;50.472;19.744;2023-07-09T15:49:35;4.20;;;2.40;;
50301;SDS011;36550;50.472;19.744;2023-07-09T15:52:20;4.30;;;2.40;;
50301;SDS011;36550;50.472;19.744;2023-07-09T15:55:04;3.50;;;2.40;;
50301;SDS011;36550;50.472;19.744;2023-07-09T15:57:48;3.40;;;2.40;;
50301;SDS011;36550;50.472;19.744;2023-07-09T16:00:34;2.80;;;2.10;;
50301;SDS011;36550;50.472;19.744;2023-07-09T16:03:19;3.90;;;2.20;;
50301;SDS011;36550;50.472;19.744;2023-07-09T16:06:04;5.90;;;2.50;;
50301;SDS011;36550;50.472;19.744;2023-07-09T16:08:49;7.40;;;2.40;;
50301;SDS011;36550;50.472;19.744;2023-07-09T16:11:34;2.80;;;2.40;;
50301;SDS011;36550;50.472;19.744;2023-07-09T16:14:24;5.70;;;2.30;;
50301;SDS011;36550;50.472;19.744;2023-07-09T16:17:10;4.80;;;2.40;;
50301;SDS011;36550;50.472;19.744;2023-07-09T16:19:55;3.60;;;2.20;;
50301;SDS011;36550;50.472;19.744;2023-07-09T16:22:40;4.20;;;2.40;;
50301;SDS011;36550;50.472;19.744;2023-07-09T16:25:26;4.50;;;2.10;;
50301;SDS011;36550;50.472;19.744;2023-07-09T16:28:15;5.60;;;2.30;;
50301;SDS011;36550;50.472;19.744;2023-07-09T16:31:04;2.70;;;2.10;;
50301;SDS011;36550;50.472;19.744;2023-07-09T16:33:48;4.90;;;2.10;;
50301;SDS011;36550;50.472;19.744;2023-07-09T16:36:32;4.80;;;2.20;;
50301;SDS011;36550;50.472;19.744;2023-07-09T16:39:27;4.00;;;2.10;;
50301;SDS011;36550;50.472;19.744;2023-07-09T16:42:12;3.90;;;2.20;;
50301;SDS011;36550;50.472;19.744;2023-07-09T16:44:57;3.80;;;2.20;;
50301;SDS011;36550;50.472;19.744;2023-07-09T16:47:42;3.20;;;2.20;;
50301;SDS011;36550;50.472;19.744;2023-07-09T16:50:27;3.10;;;2.50;;
50301;SDS011;36550;50.472;19.744;2023-07-09T16:53:14;4.50;;;2.30;;
50301;SDS011;36550;50.472;19.744;2023-07-09T16:56:00;4.00;;;2.40;;
50301;SDS011;36550;50.472;19.744;2023-07-09T16:58:44;4.80;;;2.40;;
50301;SDS011;36550;50.472;19.744;2023-07-09T17:01:28;6.00;;;2.30;;
50301;SDS011;36550;50.472;19.744;2023-07-09T17:04:19;4.30;;;2.40;;
50301;SDS011;36550;50.472;19.744;2023-07-09T17:07:06;3.10;;;1.90;;
50301;SDS011;36550;50.472;19.744;2023-07-09T17:09:51;4.60;;;2.10;;